createdAt,value
2022-11-30T00:02:07.427Z,43.27
2022-11-30T00:07:09.683Z,37.63
2022-11-30T00:12:12.743Z,40.77
2022-11-30T00:17:15.021Z,42.00
2022-11-30T00:22:17.262Z,38.70
2022-11-30T00:27:20.885Z,40.10
2022-11-30T00:32:22.831Z,39.53
2022-11-30T00:37:24.936Z,41.87
2022-11-30T00:42:28.348Z,44.10
2022-11-30T00:47:30.268Z,41.90
2022-11-30T00:52:32.424Z,37.70
2022-11-30T00:57:35.962Z,41.13
2022-11-30T01:02:38.157Z,48.20
2022-11-30T01:07:40.476Z,46.80
2022-11-30T01:12:44.137Z,46.23
2022-11-30T01:17:46.240Z,47.73
2022-11-30T01:22:48.581Z,48.73
2022-11-30T01:27:52.520Z,48.30
2022-11-30T01:32:54.223Z,54.07
2022-11-30T01:37:56.310Z,49.07
2022-11-30T01:42:59.991Z,40.80
2022-11-30T01:48:02.212Z,44.90
2022-11-30T01:53:08.155Z,47.93
2022-11-30T01:58:15.241Z,48.30
2022-11-30T02:03:27.472Z,48.37
2022-11-30T02:08:32.040Z,54.07
2022-11-30T02:13:45.877Z,45.20
2022-11-30T02:19:01.221Z,50.83
2022-11-30T02:24:18.090Z,44.77
2022-11-30T02:29:24.867Z,51.40
2022-11-30T02:34:30.892Z,49.50
2022-11-30T02:39:33.033Z,48.80
2022-11-30T02:44:36.794Z,45.87
2022-11-30T02:49:46.877Z,42.57
2022-11-30T02:54:49.561Z,52.63
2022-11-30T02:59:53.873Z,47.53
2022-11-30T03:04:56.147Z,45.10
2022-11-30T03:10:00.091Z,49.90
2022-11-30T03:15:04.531Z,44.20
2022-11-30T03:20:08.264Z,43.10
2022-11-30T03:25:10.228Z,50.73
2022-11-30T03:30:14.256Z,43.07
2022-11-30T03:35:16.536Z,49.80
2022-11-30T03:40:18.600Z,44.57
2022-11-30T03:45:22.128Z,40.10
2022-11-30T03:50:24.073Z,44.60
2022-11-30T03:55:26.150Z,43.83
2022-11-30T04:00:29.509Z,43.33
2022-11-30T04:05:31.624Z,52.83
2022-11-30T04:10:33.734Z,43.40
2022-11-30T04:15:37.444Z,44.57
2022-11-30T04:20:40.731Z,45.83
2022-11-30T04:25:42.663Z,43.53
2022-11-30T04:30:46.823Z,51.13
2022-11-30T04:35:54.941Z,40.03
2022-11-30T04:40:57.063Z,47.73
2022-11-30T04:46:00.595Z,43.43
2022-11-30T04:51:03.627Z,45.47
2022-11-30T04:56:06.338Z,45.83
2022-11-30T05:01:09.773Z,34.40
2022-11-30T05:06:11.551Z,44.77
2022-11-30T05:11:13.773Z,51.77
2022-11-30T05:16:17.220Z,38.17
2022-11-30T05:21:19.488Z,45.27
2022-11-30T05:26:21.163Z,41.83
2022-11-30T05:31:24.199Z,45.50
2022-11-30T05:36:26.310Z,40.70
2022-11-30T05:41:28.101Z,42.40
2022-11-30T05:46:31.831Z,39.57
2022-11-30T05:51:33.624Z,39.43
2022-11-30T05:56:35.748Z,37.57
2022-11-30T06:01:39.271Z,38.53
2022-11-30T06:06:41.351Z,41.90
2022-11-30T06:11:43.304Z,37.40
2022-11-30T06:16:46.923Z,40.57
2022-11-30T06:21:49.174Z,35.07
2022-11-30T06:26:51.477Z,43.63
2022-11-30T06:31:55.122Z,41.00
2022-11-30T06:36:57.749Z,40.27
2022-11-30T06:42:01.186Z,39.30
2022-11-30T06:47:04.866Z,41.00
2022-11-30T06:52:06.906Z,41.17
2022-11-30T06:57:09.191Z,43.13
2022-11-30T07:02:18.358Z,41.77
2022-11-30T07:07:20.991Z,39.33
2022-11-30T07:12:23.349Z,40.20
2022-11-30T07:17:27.464Z,40.60
2022-11-30T07:22:29.393Z,46.90
2022-11-30T07:27:31.472Z,37.53
2022-11-30T07:32:35.116Z,39.33
2022-11-30T07:37:37.487Z,44.17
2022-11-30T07:42:39.570Z,35.77
2022-11-30T07:47:43.143Z,34.37
2022-11-30T07:52:45.436Z,39.03
2022-11-30T07:57:47.664Z,41.43
2022-11-30T08:02:51.842Z,38.50
2022-11-30T08:07:54.482Z,37.37
2022-11-30T08:12:56.819Z,34.17
2022-11-30T08:18:01.106Z,40.50
2022-11-30T08:23:03.401Z,31.03
2022-11-30T08:28:05.861Z,35.73
2022-11-30T08:33:09.630Z,39.40
2022-11-30T08:38:11.845Z,33.20
2022-11-30T08:43:14.010Z,37.77
2022-11-30T08:48:17.497Z,35.43
2022-11-30T08:53:19.579Z,36.57
2022-11-30T08:58:21.769Z,35.03
2022-11-30T09:03:25.287Z,29.77
2022-11-30T09:08:27.367Z,31.33
2022-11-30T09:13:29.794Z,32.93
2022-11-30T09:18:33.783Z,30.23
2022-11-30T09:23:36.235Z,27.53
2022-11-30T09:28:38.993Z,27.87
2022-11-30T09:33:43.107Z,26.73
2022-11-30T09:38:45.977Z,26.00
2022-11-30T09:43:56.011Z,30.87
2022-11-30T09:49:03.457Z,27.53
2022-11-30T09:54:11.108Z,24.60
2022-11-30T09:59:19.586Z,26.20
2022-11-30T10:04:25.085Z,27.30
2022-11-30T10:09:39.204Z,25.97
2022-11-30T10:15:24.692Z,22.90
2022-11-30T10:20:50.017Z,23.33
2022-11-30T10:25:55.455Z,22.93
2022-11-30T10:30:57.819Z,23.20
2022-11-30T10:36:05.340Z,23.07
2022-11-30T10:41:14.010Z,20.77
2022-11-30T10:46:22.269Z,19.43
2022-11-30T10:51:27.675Z,19.30
2022-11-30T10:56:29.909Z,21.43
2022-11-30T11:01:35.799Z,19.77
2022-11-30T11:06:43.032Z,20.80
2022-11-30T11:11:45.361Z,19.63
2022-11-30T11:16:54.219Z,22.73
2022-11-30T11:21:58.020Z,21.53
2022-11-30T11:27:00.585Z,20.43
2022-11-30T11:32:21.267Z,18.77
2022-11-30T11:37:26.663Z,21.80
2022-11-30T11:42:31.954Z,25.03
2022-11-30T11:47:39.618Z,27.77
2022-11-30T11:52:42.759Z,30.87
2022-11-30T11:57:50.388Z,28.43
2022-11-30T12:03:00.668Z,28.00
2022-11-30T12:08:13.180Z,33.37
2022-11-30T12:13:17.800Z,28.93
2022-11-30T12:18:24.572Z,36.83
2022-11-30T12:23:53.490Z,28.03
2022-11-30T12:29:19.689Z,22.17
2022-11-30T12:34:28.383Z,16.93
2022-11-30T12:39:43.054Z,15.23
2022-11-30T12:44:54.007Z,18.00
2022-11-30T12:50:19.258Z,16.63
2022-11-30T12:55:31.378Z,15.73
2022-11-30T13:00:42.242Z,14.63
2022-11-30T13:05:48.597Z,21.80
2022-11-30T13:10:57.078Z,25.57
2022-11-30T13:16:04.965Z,23.93
2022-11-30T13:21:17.163Z,22.17
2022-11-30T13:26:26.696Z,22.07
2022-11-30T13:31:33.270Z,24.50
2022-11-30T13:36:38.667Z,26.73
2022-11-30T13:41:44.009Z,29.33
2022-11-30T13:46:50.536Z,32.60
2022-11-30T13:52:21.353Z,35.43
2022-11-30T13:58:02.765Z,30.57
2022-11-30T14:03:35.799Z,38.30
2022-11-30T14:08:39.756Z,37.83
2022-11-30T14:13:42.348Z,40.97
2022-11-30T14:18:47.513Z,45.37
2022-11-30T14:23:56.652Z,41.57
2022-11-30T14:29:03.182Z,51.00
2022-11-30T14:34:14.896Z,46.97
2022-11-30T14:39:28.532Z,48.03
2022-11-30T14:44:35.205Z,50.70
2022-11-30T14:49:47.458Z,61.03
2022-11-30T14:54:56.734Z,49.63
2022-11-30T14:59:59.268Z,58.97
2022-11-30T15:05:06.714Z,61.10
2022-11-30T15:10:12.622Z,63.40
2022-11-30T15:15:19.252Z,57.73
2022-11-30T15:20:36.564Z,58.77
2022-11-30T15:25:42.960Z,55.43
2022-11-30T15:30:53.854Z,54.00
2022-11-30T15:36:22.982Z,60.50
2022-11-30T15:41:24.413Z,58.80
2022-11-30T15:46:33.626Z,69.27
2022-11-30T15:51:42.159Z,66.47
2022-11-30T15:57:09.357Z,59.63
2022-11-30T16:02:28.790Z,68.10
2022-11-30T16:07:36.596Z,59.00
2022-11-30T16:12:39.397Z,59.10
2022-11-30T16:17:43.348Z,58.20
2022-11-30T16:22:47.837Z,63.70
2022-11-30T16:27:51.165Z,70.30
2022-11-30T16:32:53.261Z,67.97
2022-11-30T16:37:56.896Z,65.90
2022-11-30T16:42:59.119Z,66.67
2022-11-30T16:48:01.442Z,69.60
2022-11-30T16:53:06.489Z,69.70
2022-11-30T16:58:10.295Z,73.03
2022-11-30T17:03:20.368Z,70.70
2022-11-30T17:08:23.761Z,65.97
2022-11-30T17:13:25.907Z,66.83
2022-11-30T17:18:27.845Z,65.70
2022-11-30T17:23:31.529Z,62.83
2022-11-30T17:28:34.008Z,75.00
2022-11-30T17:33:37.697Z,68.20
2022-11-30T17:38:42.322Z,69.27
2022-11-30T17:43:44.902Z,71.70
2022-11-30T17:48:46.936Z,69.43
2022-11-30T17:53:53.165Z,68.83
2022-11-30T17:58:55.331Z,72.83
2022-11-30T18:03:57.935Z,70.40
2022-11-30T18:09:01.891Z,63.90
2022-11-30T18:14:04.067Z,80.43
2022-11-30T18:19:06.712Z,64.50
2022-11-30T18:24:09.972Z,62.90
2022-11-30T18:29:12.374Z,63.87
2022-11-30T18:34:14.699Z,69.13
2022-11-30T18:39:18.524Z,65.97
2022-11-30T18:44:21.020Z,66.70
2022-11-30T18:49:22.786Z,58.37
2022-11-30T18:54:26.312Z,49.70
2022-11-30T18:59:28.427Z,58.13
2022-11-30T19:04:30.338Z,66.43
2022-11-30T19:09:33.797Z,53.97
2022-11-30T19:14:35.545Z,63.33
2022-11-30T19:19:37.943Z,57.07
2022-11-30T19:24:41.444Z,56.63
2022-11-30T19:29:44.040Z,61.23
2022-11-30T19:34:46.094Z,48.37
2022-11-30T19:39:50.024Z,53.67
2022-11-30T19:44:52.029Z,59.30
2022-11-30T19:49:53.847Z,43.80
2022-11-30T19:54:56.972Z,51.53
2022-11-30T19:59:58.744Z,55.90
2022-11-30T20:05:01.363Z,54.83
2022-11-30T20:10:08.070Z,61.13
2022-11-30T20:15:10.973Z,62.17
2022-11-30T20:20:13.158Z,57.17
2022-11-30T20:25:17.344Z,57.70
2022-11-30T20:30:20.228Z,48.93
2022-11-30T20:35:22.100Z,53.20
2022-11-30T20:40:25.469Z,60.10
2022-11-30T20:45:27.266Z,71.03
2022-11-30T20:50:29.389Z,54.77
2022-11-30T20:55:32.622Z,51.87
2022-11-30T21:00:34.338Z,62.30
2022-11-30T21:05:38.548Z,52.37
2022-11-30T21:10:41.974Z,52.90
2022-11-30T21:15:43.887Z,51.40
2022-11-30T21:20:45.998Z,59.20
2022-11-30T21:25:49.527Z,56.57
2022-11-30T21:30:51.930Z,52.53
2022-11-30T21:35:54.154Z,52.97
2022-11-30T21:40:59.638Z,42.70
2022-11-30T21:46:03.397Z,49.27
2022-11-30T21:51:06.816Z,58.17
2022-11-30T21:56:12.552Z,51.57
2022-11-30T22:01:17.330Z,57.70
2022-11-30T22:06:20.337Z,60.00
2022-11-30T22:11:24.401Z,52.60
2022-11-30T22:16:34.023Z,52.47
2022-11-30T22:21:38.926Z,52.07
2022-11-30T22:26:43.876Z,58.13
2022-11-30T22:31:47.349Z,66.33
2022-11-30T22:36:49.763Z,48.93
2022-11-30T22:41:56.073Z,57.13
2022-11-30T22:46:58.572Z,58.47
2022-11-30T22:52:00.808Z,61.10
2022-11-30T22:57:04.374Z,58.77
2022-11-30T23:02:06.520Z,56.33
2022-11-30T23:07:08.801Z,49.80
2022-11-30T23:12:20.418Z,65.20
2022-11-30T23:17:34.315Z,60.17
2022-11-30T23:22:36.420Z,56.70
2022-11-30T23:27:39.589Z,60.37
2022-11-30T23:32:41.526Z,60.10
2022-11-30T23:37:43.605Z,54.63
2022-11-30T23:42:46.699Z,59.97
2022-11-30T23:47:48.675Z,49.60
2022-11-30T23:52:50.773Z,50.63
2022-11-30T23:57:53.873Z,55.10
